Time;durP1;ratioP1;P1;durP2;ratioP2;P2;SDS_P1;SDS_P2;PMS_P1;PMS_P2;Temp;Humidity;BMP_temperature;BMP_pressure;BME280_temperature;BME280_humidity;BME280_pressure;Samples;Min_cycle;Max_cycle;Signal;HPM_P1;HPM_P2
2023/09/17 00:00:09;;;;;;;35.67;20.53;;;;;;;24.22;69.79;101457.00;4926064;29;20307;-78
2023/09/17 00:02:40;;;;;;;34.22;20.63;;;;;;;24.00;69.73;101424.63;4912251;28;20303;-78
2023/09/17 00:05:07;;;;;;;29.85;20.92;;;;;;;24.06;69.95;101441.97;4889956;29;20055;-78
2023/09/17 00:07:39;;;;;;;23.35;15.00;;;;;;;24.16;70.11;101447.84;4887571;29;20047;-80
2023/09/17 00:10:11;;;;;;;28.08;19.08;;;;;;;24.22;70.11;101452.41;4898406;29;20051;-76
2023/09/17 00:12:38;;;;;;;32.65;20.73;;;;;;;24.23;69.79;101437.00;4913255;29;20055;-78
2023/09/17 00:15:06;;;;;;;26.52;19.10;;;;;;;24.18;69.66;101415.09;4909475;29;20697;-79
2023/09/17 00:17:33;;;;;;;27.60;19.55;;;;;;;24.19;69.67;101411.31;4911818;28;20051;-80
2023/09/17 00:20:10;;;;;;;22.83;16.83;;;;;;;24.36;69.65;101418.00;4912463;28;20422;-78
2023/09/17 00:22:38;;;;;;;31.60;19.27;;;;;;;24.50;69.19;101430.56;4921174;29;20051;-78
2023/09/17 00:25:06;;;;;;;30.63;20.05;;;;;;;24.52;69.05;101424.94;4916746;28;20058;-79
2023/09/17 00:27:39;;;;;;;24.60;17.98;;;;;;;24.31;69.19;101390.66;4912585;29;20754;-80
2023/09/17 00:30:09;;;;;;;27.85;20.15;;;;;;;24.44;69.50;101434.09;4891658;29;20048;-80
2023/09/17 00:32:37;;;;;;;36.15;23.50;;;;;;;24.31;69.64;101425.94;4898676;29;20054;-81
2023/09/17 00:35:05;;;;;;;32.92;20.25;;;;;;;24.19;69.97;101423.00;4907958;29;20158;-78
2023/09/17 00:37:32;;;;;;;30.45;19.83;;;;;;;24.09;69.99;101430.72;4914419;28;20498;-78
2023/09/17 00:39:59;;;;;;;30.85;21.65;;;;;;;24.15;70.35;101448.84;4917834;29;20371;-79
2023/09/17 00:42:26;;;;;;;27.40;20.80;;;;;;;23.95;71.01;101427.13;4914956;29;20047;-78
2023/09/17 00:44:57;;;;;;;26.77;20.60;;;;;;;23.95;71.28;101435.25;4920037;29;20507;-81
2023/09/17 00:47:24;;;;;;;34.05;21.05;;;;;;;23.92;71.33;101430.25;4921502;29;20066;-79
2023/09/17 00:49:54;;;;;;;33.00;22.42;;;;;;;24.02;71.43;101451.56;4917450;29;20051;-80
2023/09/17 00:52:21;;;;;;;31.13;21.17;;;;;;;23.74;71.73;101406.44;4910261;29;20108;-78
2023/09/17 00:54:51;;;;;;;38.28;20.73;;;;;;;23.95;71.64;101434.44;4918453;29;20195;-81
2023/09/17 00:57:19;;;;;;;29.48;20.38;;;;;;;23.95;71.69;101437.97;4916530;29;20149;-78
2023/09/17 00:59:48;;;;;;;29.70;20.63;;;;;;;23.11;71.56;101303.66;4919911;29;20105;-77
2023/09/17 01:02:21;;;;;;;25.02;18.13;;;;;;;23.96;71.38;101439.66;4922088;28;20063;-80
2023/09/17 01:04:51;;;;;;;34.97;21.33;;;;;;;23.94;71.29;101428.19;4895623;29;20451;-77
2023/09/17 01:07:21;;;;;;;27.35;19.90;;;;;;;23.96;71.19;101439.66;4896752;29;20505;-79
2023/09/17 01:09:53;;;;;;;23.50;18.95;;;;;;;24.01;70.91;101450.72;4904433;29;20066;-80
2023/09/17 01:12:20;;;;;;;30.70;21.55;;;;;;;24.11;70.42;101439.47;4913741;29;20074;-78
2023/09/17 01:14:47;;;;;;;33.05;24.17;;;;;;;24.17;70.31;101440.53;4912873;29;20044;-79
2023/09/17 01:17:15;;;;;;;37.22;25.77;;;;;;;24.17;70.33;101448.66;4913794;29;20561;-79
2023/09/17 01:19:42;;;;;;;42.67;27.17;;;;;;;24.00;70.29;101416.50;4918138;29;20276;-79
2023/09/17 01:22:14;;;;;;;45.95;26.25;;;;;;;24.13;70.55;101425.69;4918216;29;20087;-78
2023/09/17 01:25:24;;;;;;;43.53;28.33;;;;;;;24.16;70.86;101436.97;4905046;29;20243;-80
2023/09/17 01:27:52;;;;;;;37.20;26.13;;;;;;;24.04;70.72;101409.63;4870573;29;20070;-79
2023/09/17 01:30:24;;;;;;;44.45;28.05;;;;;;;24.19;70.82;101439.28;4920732;29;20126;-78
2023/09/17 01:32:52;;;;;;;21.92;14.77;;;;;;;24.03;70.84;101404.41;4915853;28;20063;-78
2023/09/17 01:35:21;;;;;;;63.63;35.90;;;;;;;24.20;70.99;101426.53;4916440;29;20078;-78
2023/09/17 01:37:59;;;;;;;53.67;33.85;;;;;;;23.98;71.44;101396.03;4915371;29;20055;-79
2023/09/17 01:40:28;;;;;;;57.25;35.22;;;;;;;24.14;71.29;101427.38;4909109;29;20146;-80
2023/09/17 01:43:00;;;;;;;31.45;21.50;;;;;;;24.15;71.25;101429.88;4910200;29;20511;-81
2023/09/17 01:45:29;;;;;;;55.75;35.60;;;;;;;24.27;71.14;101438.22;4907896;29;20059;-77
2023/09/17 01:47:58;;;;;;;55.75;35.42;;;;;;;24.12;71.56;101414.00;4918373;29;20078;-78
2023/09/17 01:50:28;;;;;;;53.95;32.45;;;;;;;24.01;71.56;101399.19;4919047;29;20078;-78
2023/09/17 01:52:57;;;;;;;59.08;35.75;;;;;;;24.24;71.31;101434.06;4911539;29;20558;-80
2023/09/17 01:55:29;;;;;;;56.90;34.03;;;;;;;24.11;71.26;101415.06;4911533;29;20051;-78
2023/09/17 01:57:59;;;;;;;34.72;24.52;;;;;;;24.28;71.08;101445.34;4914466;29;20855;-80
2023/09/17 02:00:29;;;;;;;41.92;25.45;;;;;;;24.30;70.74;101419.69;4916144;29;20048;-79
2023/09/17 02:02:57;;;;;;;;;;;;;;;24.26;70.80;101442.00;4932576;28;20051;-81
2023/09/17 02:05:24;;;;;;;37.08;21.50;;;;;;;24.29;70.60;101447.00;4932405;28;20378;-78
2023/09/17 02:07:52;;;;;;;30.77;21.17;;;;;;;24.12;70.55;101413.19;4928526;28;20129;-79
2023/09/17 02:10:21;;;;;;;36.60;21.83;;;;;;;24.14;70.71;101430.91;4933184;28;20145;-79
2023/09/17 02:12:52;;;;;;;24.67;17.63;;;;;;;24.24;70.71;101444.91;4936474;28;20512;-79
2023/09/17 02:15:28;;;;;;;25.52;20.17;;;;;;;24.17;70.47;101422.38;4924296;28;20059;-80
2023/09/17 02:18:03;;;;;;;27.70;20.83;;;;;;;23.43;70.57;101306.66;4934182;28;20098;-78
2023/09/17 02:20:30;;;;;;;34.00;23.23;;;;;;;24.08;70.68;101421.75;4929253;28;20586;-79
2023/09/17 02:23:00;;;;;;;24.98;19.30;;;;;;;24.00;71.00;101415.66;4920124;28;20047;-80
2023/09/17 02:25:27;;;;;;;41.75;25.45;;;;;;;24.03;71.29;101431.50;4916477;28;20134;-79
2023/09/17 02:28:03;;;;;;;42.03;26.45;;;;;;;24.04;70.70;101438.63;4922819;28;20051;-78
2023/09/17 02:30:34;;;;;;;39.08;25.13;;;;;;;23.99;71.06;101441.13;4923936;28;20186;-80
2023/09/17 02:33:00;;;;;;;36.97;25.15;;;;;;;23.81;71.62;101426.28;4917680;28;20378;-81
2023/09/17 02:35:28;;;;;;;35.92;25.08;;;;;;;23.87;71.63;101432.75;4922491;28;20133;-79
2023/09/17 02:37:55;;;;;;;39.60;27.45;;;;;;;23.83;71.42;101420.63;4922666;28;20158;-79
2023/09/17 02:40:26;;;;;;;46.58;27.48;;;;;;;23.85;71.92;101418.56;4921132;28;20483;-79
2023/09/17 02:42:55;;;;;;;42.22;28.25;;;;;;;23.76;71.87;101415.19;4927821;28;20228;-82
2023/09/17 02:45:24;;;;;;;49.87;29.83;;;;;;;23.84;72.04;101427.75;4936195;28;20046;-80
2023/09/17 02:47:51;;;;;;;46.47;29.83;;;;;;;23.75;71.85;101402.69;4937304;28;20509;-80
2023/09/17 02:50:22;;;;;;;49.28;29.08;;;;;;;23.62;71.63;101362.78;4927231;28;20750;-81
2023/09/17 02:52:52;;;;;;;52.03;33.85;;;;;;;23.96;71.69;101412.53;4926267;28;20132;-82
2023/09/17 02:55:24;;;;;;;51.10;31.58;;;;;;;24.02;71.63;101429.84;4932234;28;20058;-80
2023/09/17 02:57:51;;;;;;;63.40;34.95;;;;;;;24.09;71.27;101423.41;4927637;28;20075;-77
2023/09/17 03:00:24;;;;;;;42.70;29.20;;;;;;;24.15;71.34;101420.91;4911140;28;20321;-80
2023/09/17 03:02:56;;;;;;;66.38;40.22;;;;;;;24.13;71.45;101420.25;4908888;28;20055;-79
2023/09/17 03:05:25;;;;;;;63.88;38.30;;;;;;;24.23;70.87;101415.28;4914644;29;20047;-78
2023/09/17 03:08:01;;;;;;;69.82;41.83;;;;;;;24.12;71.48;101430.28;4903745;29;20095;-79
2023/09/17 03:10:41;;;;;;;78.70;44.88;;;;;;;24.06;71.71;101426.53;4892153;29;20488;-76
2023/09/17 03:13:16;;;;;;;70.07;39.42;;;;;;;24.09;71.77;101431.53;4915580;29;20056;-79
2023/09/17 03:15:44;;;;;;;56.97;36.15;;;;;;;23.91;71.74;101406.91;4907336;29;20047;-77
2023/09/17 03:18:11;;;;;;;68.70;39.80;;;;;;;24.05;71.66;101424.00;4917592;29;20110;-79
2023/09/17 03:20:38;;;;;;;70.68;42.05;;;;;;;23.89;71.79;101409.81;4917981;29;20499;-81
2023/09/17 03:23:04;;;;;;;48.25;29.20;;;;;;;23.93;72.19;101425.66;4915316;29;20490;-78
2023/09/17 03:25:32;;;;;;;86.20;44.22;;;;;;;23.66;72.31;101396.56;4910165;29;20055;-77
2023/09/17 03:28:02;;;;;;;58.90;34.35;;;;;;;23.74;72.74;101394.72;4905785;29;20043;-76
2023/09/17 03:30:29;;;;;;;66.20;40.05;;;;;;;23.81;72.89;101418.13;4902670;29;20365;-76
2023/09/17 03:32:59;;;;;;;73.25;42.33;;;;;;;23.85;72.48;101413.13;4876804;29;20854;-79
2023/09/17 03:35:32;;;;;;;49.92;32.13;;;;;;;23.66;72.65;101399.25;4922228;29;20126;-79
2023/09/17 03:37:59;;;;;;;69.95;41.50;;;;;;;23.55;72.66;101389.03;4929472;28;20449;-78
2023/09/17 03:40:26;;;;;;;69.00;39.40;;;;;;;23.80;72.68;101427.28;4919443;29;20075;-79
2023/09/17 03:42:53;;;;;;;70.93;37.78;;;;;;;23.59;72.47;101403.00;4922198;29;20130;-78
2023/09/17 03:45:21;;;;;;;76.85;42.33;;;;;;;23.81;72.49;101441.69;4920518;29;20262;-80
2023/09/17 03:47:49;;;;;;;69.20;41.47;;;;;;;23.62;72.67;101424.31;4902315;29;20051;-79
2023/09/17 03:50:16;;;;;;;71.82;43.80;;;;;;;23.46;72.64;101390.25;4927737;29;20047;-78
2023/09/17 03:52:50;;;;;;;78.53;42.03;;;;;;;23.59;72.96;101420.13;4910875;29;20054;-80
2023/09/17 03:55:18;;;;;;;58.67;35.58;;;;;;;23.70;72.72;101431.41;4919115;28;20047;-80
2023/09/17 03:57:50;;;;;;;74.47;42.47;;;;;;;23.70;72.57;101442.25;4925594;29;20110;-77
2023/09/17 04:00:18;;;;;;;54.25;31.42;;;;;;;23.59;73.11;101430.97;4909302;28;20086;-78
2023/09/17 04:02:49;;;;;;;69.68;41.03;;;;;;;23.64;72.64;101428.47;4928037;28;20150;-80
2023/09/17 04:05:16;;;;;;;67.32;41.85;;;;;;;23.43;72.90;101412.34;4921508;29;20056;-77
2023/09/17 04:07:45;;;;;;;69.13;41.83;;;;;;;23.60;72.96;101438.03;4919817;28;20055;-78
2023/09/17 04:10:18;;;;;;;49.63;31.88;;;;;;;23.53;73.11;101442.59;4904877;28;20067;-80
2023/09/17 04:12:47;;;;;;;85.25;45.83;;;;;;;23.36;73.25;101408.75;4937381;28;20496;-80
2023/09/17 04:15:25;;;;;;;77.68;45.80;;;;;;;23.57;72.95;101448.44;4947274;28;20332;-79
2023/09/17 04:17:52;;;;;;;80.95;43.53;;;;;;;23.51;73.36;101447.38;4904776;28;20063;-79
2023/09/17 04:20:19;;;;;;;74.85;44.00;;;;;;;23.55;73.40;101451.38;4933414;28;20051;-78
2023/09/17 04:22:51;;;;;;;74.03;44.53;;;;;;;23.49;73.25;101426.94;4939496;28;20051;-80
2023/09/17 04:25:20;;;;;;;82.97;46.58;;;;;;;23.45;73.33;101435.47;4927003;28;20148;-80
2023/09/17 04:27:49;;;;;;;84.88;47.28;;;;;;;23.50;73.31;101437.59;4943347;28;20153;-79
2023/09/17 04:30:16;;;;;;;83.40;49.88;;;;;;;23.53;73.44;101439.88;4919252;28;20486;-79
2023/09/17 04:32:44;;;;;;;60.53;36.40;;;;;;;23.33;73.91;101425.41;4941117;28;20054;-80
2023/09/17 04:35:15;;;;;;;81.35;48.50;;;;;;;23.36;73.68;101435.84;4943523;28;20062;-78
2023/09/17 04:37:44;;;;;;;81.95;47.28;;;;;;;23.45;74.02;101449.03;4952054;28;20050;-78
2023/09/17 04:40:11;;;;;;;78.68;46.70;;;;;;;23.48;73.75;101455.91;4935148;28;20088;-79
2023/09/17 04:42:46;;;;;;;79.45;43.50;;;;;;;23.30;73.96;101434.75;4942474;28;20054;-78
2023/09/17 04:45:35;;;;;;;77.47;45.05;;;;;;;23.36;74.15;101452.09;4927312;28;20287;-80
2023/09/17 04:48:04;;;;;;;84.20;48.70;;;;;;;23.41;74.08;101472.13;4924028;28;20403;-78
2023/09/17 04:50:33;;;;;;;78.28;42.92;;;;;;;23.25;74.14;101443.50;4953404;28;20113;-78
2023/09/17 04:53:03;;;;;;;75.40;42.83;;;;;;;23.44;74.05;101476.31;4945737;28;20061;-80
2023/09/17 04:55:33;;;;;;;52.15;32.22;;;;;;;23.35;74.08;101466.66;4952714;28;20054;-80
2023/09/17 04:58:05;;;;;;;83.18;47.22;;;;;;;23.48;74.05;101482.19;4940451;28;20137;-80
2023/09/17 05:00:34;;;;;;;63.85;38.00;;;;;;;23.27;73.72;101434.34;4947444;28;20057;-77
2023/09/17 05:03:08;;;;;;;89.30;49.40;;;;;;;23.49;73.64;101473.84;4921109;28;20422;-79
2023/09/17 05:05:38;;;;;;;88.18;46.63;;;;;;;23.23;73.60;101442.88;4920722;29;20044;-77
2023/09/17 05:08:09;;;;;;;79.88;43.28;;;;;;;23.39;73.79;101467.94;4917787;29;20059;-79
2023/09/17 05:10:39;;;;;;;58.97;34.08;;;;;;;23.48;73.46;101488.44;4914509;29;20051;-77
2023/09/17 05:13:06;;;;;;;80.07;47.05;;;;;;;23.50;73.61;101504.47;4914708;29;20047;-79
2023/09/17 05:15:34;;;;;;;72.80;43.30;;;;;;;23.48;73.26;101488.44;4927882;29;20055;-79
2023/09/17 05:18:06;;;;;;;82.07;43.30;;;;;;;23.53;73.63;101510.34;4926306;28;20047;-79
2023/09/17 05:20:43;;;;;;;69.55;41.58;;;;;;;23.30;73.83;101469.97;4918718;29;20497;-79
2023/09/17 05:23:14;;;;;;;82.07;44.83;;;;;;;23.33;73.74;101479.59;4923244;28;20110;-80
2023/09/17 05:25:46;;;;;;;65.97;39.33;;;;;;;23.45;73.69;101495.09;4922040;29;20130;-81
2023/09/17 05:28:13;;;;;;;68.35;40.30;;;;;;;23.62;72.93;101506.44;4932046;29;20062;-76
2023/09/17 05:30:42;;;;;;;59.67;35.83;;;;;;;23.65;73.18;101508.75;4922791;29;20484;-79
2023/09/17 05:33:09;;;;;;;69.95;41.67;;;;;;;23.62;72.55;101503.72;4932898;29;20059;-79
2023/09/17 05:35:39;;;;;;;64.53;36.92;;;;;;;23.64;72.49;101506.22;4916112;29;20051;-80
2023/09/17 05:38:06;;;;;;;47.10;27.58;;;;;;;23.73;72.07;101510.47;4923237;29;20086;-78
2023/09/17 05:40:34;;;;;;;63.08;37.67;;;;;;;23.70;72.26;101523.56;4923161;29;20546;-78
2023/09/17 05:43:01;;;;;;;53.47;32.22;;;;;;;23.49;72.17;101476.53;4926272;29;20142;-78
2023/09/17 05:45:31;;;;;;;58.47;32.85;;;;;;;23.58;71.83;101488.91;4924374;29;20059;-80
2023/09/17 05:47:58;;;;;;;63.90;38.67;;;;;;;23.72;71.82;101522.34;4924517;29;20134;-79
2023/09/17 05:50:25;;;;;;;59.35;35.15;;;;;;;23.65;71.65;101516.88;4924262;29;20323;-80
2023/09/17 05:52:52;;;;;;;70.25;40.05;;;;;;;23.75;71.65;101532.78;4915170;29;20051;-81
2023/09/17 05:55:23;;;;;;;64.60;38.85;;;;;;;23.57;71.90;101511.63;4924297;29;20146;-79
2023/09/17 05:57:51;;;;;;;63.67;38.78;;;;;;;23.70;72.29;101531.72;4925516;29;20054;-79
2023/09/17 06:00:20;;;;;;;70.80;38.13;;;;;;;23.69;71.99;101544.44;4920984;29;20058;-80
2023/09/17 06:02:51;;;;;;;38.60;24.52;;;;;;;23.37;72.22;101480.84;4921110;28;20410;-80
2023/09/17 06:05:21;;;;;;;62.90;38.28;;;;;;;23.81;71.72;101539.28;4940707;28;20043;-79
2023/09/17 06:07:48;;;;;;;60.40;36.10;;;;;;;23.79;71.74;101544.94;4936707;28;20070;-78
2023/09/17 06:10:15;;;;;;;73.32;40.85;;;;;;;23.68;72.04;101527.31;4940332;28;20601;-78
2023/09/17 06:12:42;;;;;;;72.30;41.42;;;;;;;23.72;71.50;101525.03;4942065;28;20142;-79
2023/09/17 06:15:12;;;;;;;63.65;37.67;;;;;;;23.65;71.75;101516.88;4950533;28;20057;-80
2023/09/17 06:17:46;;;;;;;57.78;35.50;;;;;;;23.55;71.78;101500.16;4939545;28;20054;-81
2023/09/17 06:20:13;;;;;;;69.38;41.63;;;;;;;23.87;71.73;101539.31;4943727;28;20353;-81
2023/09/17 06:22:40;;;;;;;37.45;24.38;;;;;;;23.88;71.92;101537.44;4947518;28;20057;-80
2023/09/17 06:25:15;;;;;;;75.05;41.75;;;;;;;23.76;72.03;101517.38;4946414;28;20473;-80
2023/09/17 06:27:45;;;;;;;50.50;30.45;;;;;;;23.77;71.63;101510.91;4945846;28;20065;-77
2023/09/17 06:30:14;;;;;;;73.22;40.75;;;;;;;23.93;71.02;101524.09;4944054;28;20299;-77
2023/09/17 06:32:45;;;;;;;72.13;40.80;;;;;;;23.60;71.26;101486.81;4950188;28;20054;-76
2023/09/17 06:35:17;;;;;;;75.78;43.88;;;;;;;24.01;70.47;101539.41;4942914;28;20051;-79
2023/09/17 06:37:47;;;;;;;68.65;41.63;;;;;;;23.94;70.97;101544.78;4939883;28;20166;-77
2023/09/17 06:40:14;;;;;;;73.97;42.40;;;;;;;23.76;71.52;101518.19;4941797;28;20058;-77
2023/09/17 06:42:41;;;;;;;58.40;33.65;;;;;;;23.82;71.77;101519.28;4940624;28;20245;-81
2023/09/17 06:45:09;;;;;;;34.00;21.30;;;;;;;24.05;70.75;101541.47;4937056;28;20392;-78
2023/09/17 06:47:35;;;;;;;76.25;44.55;;;;;;;24.05;71.09;101538.75;4945263;28;20450;-78
2023/09/17 06:50:03;;;;;;;65.82;38.47;;;;;;;24.07;71.07;101536.69;4948528;28;20043;-79
2023/09/17 06:52:30;;;;;;;74.35;43.90;;;;;;;24.06;71.15;101537.72;4941790;28;20069;-77
2023/09/17 06:54:57;;;;;;;70.13;43.05;;;;;;;24.17;70.90;101543.59;4918842;29;20068;-80
2023/09/17 06:57:23;;;;;;;78.88;43.22;;;;;;;24.16;70.59;101531.09;4924941;29;20341;-78
2023/09/17 06:59:50;;;;;;;29.40;20.95;;;;;;;24.10;70.61;101530.00;4926941;29;20218;-80
2023/09/17 07:02:17;;;;;;;73.55;44.80;;;;;;;24.20;70.13;101540.47;4950667;28;20065;-78
2023/09/17 07:04:44;;;;;;;79.13;43.55;;;;;;;24.32;69.64;101555.13;4950604;28;20050;-78
2023/09/17 07:07:11;;;;;;;74.35;44.72;;;;;;;24.12;70.09;101538.78;4947402;28;20575;-78
2023/09/17 07:09:39;;;;;;;81.50;42.28;;;;;;;24.19;70.91;101563.22;4955138;28;20050;-79
2023/09/17 07:12:08;;;;;;;75.05;43.70;;;;;;;24.14;69.82;101541.31;4949608;28;20422;-78
2023/09/17 07:14:35;;;;;;;72.15;43.45;;;;;;;24.18;70.14;101550.72;4952090;28;20077;-80
2023/09/17 07:17:06;;;;;;;43.80;27.38;;;;;;;24.20;70.46;101556.75;4942609;28;20054;-79
2023/09/17 07:19:33;;;;;;;75.85;42.17;;;;;;;24.23;70.24;101554.50;4947315;28;20058;-79
2023/09/17 07:22:00;;;;;;;70.18;40.03;;;;;;;24.34;69.97;101563.91;4950631;28;20050;-80
2023/09/17 07:24:27;;;;;;;74.45;38.33;;;;;;;24.43;69.68;101557.25;4952425;28;20406;-78
2023/09/17 07:26:54;;;;;;;70.72;38.67;;;;;;;24.29;69.70;101531.94;4940966;28;20050;-77
2023/09/17 07:29:21;;;;;;;56.03;30.60;;;;;;;24.45;69.46;101557.88;4949979;28;20046;-79
2023/09/17 07:31:50;;;;;;;76.10;44.50;;;;;;;24.50;68.67;101555.41;4951615;28;20304;-79
2023/09/17 07:34:19;;;;;;;85.63;44.88;;;;;;;24.49;68.29;101561.91;4950563;28;20078;-80
2023/09/17 07:36:46;;;;;;;63.75;36.00;;;;;;;24.46;68.32;101567.72;4952742;28;20530;-79
2023/09/17 07:39:13;;;;;;;74.18;39.78;;;;;;;24.49;68.26;101567.34;4952845;28;20054;-78
2023/09/17 07:41:40;;;;;;;74.80;42.75;;;;;;;24.34;68.89;101553.03;4952380;28;20066;-79
2023/09/17 07:44:07;;;;;;;68.80;38.03;;;;;;;24.43;68.83;101556.41;4949178;28;20092;-80
2023/09/17 07:46:34;;;;;;;70.30;38.72;;;;;;;24.44;69.13;101564.38;4952759;28;20129;-79
2023/09/17 07:49:01;;;;;;;72.22;41.65;;;;;;;24.30;68.93;101540.94;4951864;28;20485;-79
2023/09/17 07:51:28;;;;;;;70.93;41.17;;;;;;;24.34;69.05;101563.91;4948357;28;20101;-80
2023/09/17 07:54:00;;;;;;;46.35;28.80;;;;;;;24.34;69.15;101550.34;4975553;28;20042;-80
2023/09/17 07:56:31;;;;;;;77.88;45.22;;;;;;;24.64;68.92;101586.16;4955808;28;20112;-80
2023/09/17 07:59:01;;;;;;;77.33;44.30;;;;;;;24.67;68.51;101584.91;4954875;28;20115;-81
2023/09/17 08:01:28;;;;;;;82.13;42.25;;;;;;;24.70;68.36;101582.59;4953128;28;20215;-79
2023/09/17 08:03:56;;;;;;;75.72;39.55;;;;;;;24.57;68.20;101558.16;4946244;28;20494;-78
2023/09/17 08:06:25;;;;;;;45.70;28.90;;;;;;;24.73;68.67;101590.34;4954556;28;20449;-80
2023/09/17 08:08:53;;;;;;;75.22;41.95;;;;;;;24.82;68.05;101587.44;4961075;28;20125;-80
2023/09/17 08:11:27;;;;;;;43.20;28.17;;;;;;;24.53;67.71;101540.59;4954482;28;20061;-83
2023/09/17 08:13:54;;;;;;;70.97;43.05;;;;;;;24.84;67.15;101578.03;4951417;28;20100;-78
2023/09/17 08:16:23;;;;;;;71.75;40.45;;;;;;;24.43;67.91;101529.28;4957925;28;20046;-80
2023/09/17 08:18:55;;;;;;;41.60;25.95;;;;;;;24.65;68.08;101565.25;4943299;28;20149;-80
2023/09/17 08:21:23;;;;;;;69.63;39.55;;;;;;;24.90;67.60;101595.38;4938552;28;20113;-78
2023/09/17 08:23:51;;;;;;;71.03;42.15;;;;;;;24.79;67.21;101569.69;4962066;28;20833;-78
2023/09/17 08:26:19;;;;;;;64.45;36.67;;;;;;;24.79;66.46;101547.94;4952077;28;20042;-77
2023/09/17 08:28:47;;;;;;;65.90;40.05;;;;;;;24.99;66.39;101572.41;4963075;28;20054;-80
2023/09/17 08:31:15;;;;;;;69.60;36.15;;;;;;;24.99;67.20;101594.13;4952329;28;20501;-78
2023/09/17 08:33:45;;;;;;;50.47;29.52;;;;;;;24.86;67.07;101578.66;4953534;28;20050;-78
2023/09/17 08:36:15;;;;;;;54.22;29.85;;;;;;;24.80;67.41;101546.06;4970108;28;20088;-78
2023/09/17 08:38:42;;;;;;;61.17;32.17;;;;;;;24.92;67.32;101571.56;4973662;28;20564;-79
2023/09/17 08:41:11;;;;;;;38.97;23.40;;;;;;;25.09;66.98;101580.97;4948463;28;20046;-78
2023/09/17 08:43:39;;;;;;;40.65;24.52;;;;;;;25.14;66.91;101588.47;4967223;28;20282;-77
2023/09/17 08:46:09;;;;;;;68.63;34.85;;;;;;;25.30;66.51;101585.38;4946666;28;20727;-81
2023/09/17 08:48:36;;;;;;;69.00;40.25;;;;;;;25.18;65.88;101562.63;4947957;28;20486;-80
2023/09/17 08:51:04;;;;;;;38.65;22.67;;;;;;;25.09;66.34;101552.97;4951415;28;20669;-80
2023/09/17 08:54:04;;;;;;;63.67;34.80;;;;;;;25.38;66.28;101587.88;4941181;28;20057;-81
2023/09/17 08:56:35;;;;;;;67.43;35.15;;;;;;;25.40;66.58;101584.13;4941511;28;20081;-80
2023/09/17 08:59:09;;;;;;;61.70;36.47;;;;;;;25.33;66.52;101565.94;4969534;28;20100;-80
2023/09/17 09:01:39;;;;;;;53.00;28.83;;;;;;;25.46;66.16;101561.53;4945708;28;20498;-79
2023/09/17 09:04:11;;;;;;;37.22;23.98;;;;;;;25.55;65.96;101571.13;4949019;28;20051;-81
2023/09/17 09:06:40;;;;;;;69.05;37.10;;;;;;;25.74;65.24;101581.13;4965180;28;20287;-81
2023/09/17 09:09:08;;;;;;;64.47;34.33;;;;;;;25.77;65.01;101575.25;4950328;28;20374;-80
2023/09/17 09:11:36;;;;;;;66.30;36.72;;;;;;;25.89;64.05;101578.16;4943792;28;20104;-78
2023/09/17 09:14:06;;;;;;;48.42;28.40;;;;;;;25.43;64.79;101519.28;4942549;28;20073;-80
2023/09/17 09:16:37;;;;;;;52.80;31.50;;;;;;;25.80;65.28;101580.28;4948437;28;20054;-79
2023/09/17 09:19:05;;;;;;;45.33;27.33;;;;;;;25.91;64.79;101580.69;4955480;28;20348;-78
2023/09/17 09:21:32;;;;;;;38.03;22.88;;;;;;;25.93;64.82;101573.16;4949526;28;20073;-77
2023/09/17 09:24:02;;;;;;;59.83;35.83;;;;;;;26.17;63.61;101580.59;4947496;28;20367;-78
2023/09/17 09:26:36;;;;;;;49.95;28.30;;;;;;;26.14;64.04;101575.59;4949788;28;20055;-81
2023/09/17 09:29:08;;;;;;;63.70;33.50;;;;;;;25.91;63.58;101523.56;4953147;28;20057;-78
2023/09/17 09:31:35;;;;;;;52.53;27.02;;;;;;;26.28;63.63;101579.06;4951063;28;20042;-78
2023/09/17 09:34:04;;;;;;;36.25;21.33;;;;;;;26.47;63.38;101574.56;4944235;28;20050;-79
2023/09/17 09:36:32;;;;;;;35.00;20.58;;;;;;;26.50;62.31;101551.50;4947042;28;20046;-80
2023/09/17 09:39:03;;;;;;;50.70;29.60;;;;;;;26.27;62.33;101509.34;4971450;28;20414;-79
2023/09/17 09:41:34;;;;;;;49.58;32.95;;;;;;;26.72;62.34;101573.81;4948748;28;20054;-81
2023/09/17 09:44:01;;;;;;;54.47;33.10;;;;;;;26.44;61.81;101520.56;4951760;28;20136;-81
2023/09/17 09:46:32;;;;;;;41.45;25.17;;;;;;;26.88;61.60;101570.56;4949890;28;20062;-77
2023/09/17 09:49:01;;;;;;;46.65;29.33;;;;;;;26.64;60.78;101515.81;4934751;28;20484;-79
2023/09/17 09:51:31;;;;;;;59.47;31.90;;;;;;;26.46;61.08;101491.22;4967023;28;20050;-77
2023/09/17 09:53:58;;;;;;;32.28;20.02;;;;;;;26.94;61.48;101564.19;4970063;28;20046;-77
2023/09/17 09:56:27;;;;;;;37.38;23.05;;;;;;;26.90;61.47;101549.38;4957437;28;20062;-78
2023/09/17 09:59:02;;;;;;;45.38;27.27;;;;;;;26.90;61.84;101545.81;4952481;28;20062;-79
2023/09/17 10:01:29;;;;;;;35.05;22.58;;;;;;;27.02;61.70;101555.75;4948677;28;20153;-79
2023/09/17 10:03:58;;;;;;;26.92;16.60;;;;;;;27.10;61.22;101562.00;4946771;28;20403;-79
2023/09/17 10:06:27;;;;;;;33.20;21.30;;;;;;;27.10;61.14;101567.44;4949625;28;20057;-79
2023/09/17 10:08:58;;;;;;;44.72;29.13;;;;;;;27.27;60.33;101563.94;4971525;28;20134;-78
2023/09/17 10:11:26;;;;;;;36.50;20.95;;;;;;;27.27;59.84;101553.03;4922777;28;20134;-80
2023/09/17 10:14:00;;;;;;;43.75;27.90;;;;;;;27.47;59.74;101563.75;4922405;28;20077;-80
2023/09/17 10:16:29;;;;;;;50.40;30.17;;;;;;;27.41;59.81;101559.22;4944476;28;20143;-82
2023/09/17 10:19:04;;;;;;;44.75;28.65;;;;;;;27.49;59.42;101563.53;4924548;28;20054;-82
2023/09/17 10:21:37;;;;;;;39.97;27.97;;;;;;;27.48;59.45;101557.25;4919350;28;20136;-81
2023/09/17 10:24:08;;;;;;;34.78;21.55;;;;;;;27.47;59.51;101566.47;4916064;28;20062;-81
2023/09/17 10:26:41;;;;;;;30.43;18.20;;;;;;;27.51;59.82;101568.78;4921798;28;20046;-78
2023/09/17 10:29:11;;;;;;;50.55;30.17;;;;;;;27.63;58.86;101566.97;4944395;28;20305;-81
2023/09/17 10:31:40;;;;;;;34.67;23.20;;;;;;;27.46;59.22;101529.38;4946154;28;20474;-82
2023/09/17 10:34:09;;;;;;;37.25;25.58;;;;;;;27.08;59.56;101478.56;4940301;28;20042;-80
2023/09/17 10:36:41;;;;;;;38.67;24.13;;;;;;;27.59;59.53;101552.09;4941394;28;20138;-80
2023/09/17 10:39:10;;;;;;;43.38;26.77;;;;;;;27.67;59.00;101530.81;4950528;28;20136;-82
2023/09/17 10:41:37;;;;;;;27.42;20.38;;;;;;;27.68;58.61;101537.94;4944937;28;20508;-79
2023/09/17 10:44:08;;;;;;;21.75;16.08;;;;;;;27.37;59.04;101497.19;4939990;28;20112;-79
2023/09/17 10:46:40;;;;;;;;;;;;;;;27.66;58.99;101533.75;4946438;28;20104;-78
2023/09/17 10:49:11;;;;;;;24.80;18.60;;;;;;;27.49;58.92;101512.53;4938696;28;20013;-80
2023/09/17 10:51:39;;;;;;;21.60;15.77;;;;;;;27.62;59.03;101527.09;4947686;28;20560;-77
2023/09/17 10:54:06;;;;;;;52.42;29.48;;;;;;;27.61;58.63;101488.09;4956845;28;20042;-79
2023/09/17 10:56:34;;;;;;;32.95;21.83;;;;;;;27.88;58.97;101532.25;4954507;28;20051;-80
2023/09/17 10:59:03;;;;;;;45.90;28.05;;;;;;;27.81;59.03;101520.56;4945024;28;20101;-80
2023/09/17 11:01:34;;;;;;;41.40;26.05;;;;;;;27.83;58.77;101539.47;4941329;28;20050;-80
2023/09/17 11:04:07;;;;;;;24.13;16.63;;;;;;;27.85;58.69;101543.63;4950951;28;20390;-78
2023/09/17 11:06:35;;;;;;;45.75;26.65;;;;;;;27.83;59.44;101547.66;4950634;28;20046;-79
2023/09/17 11:09:04;;;;;;;36.05;23.17;;;;;;;27.85;59.19;101531.91;4962590;28;20062;-80
2023/09/17 11:11:33;;;;;;;39.45;26.10;;;;;;;27.78;59.06;101509.28;4944986;28;20367;-78
2023/09/17 11:14:04;;;;;;;43.95;26.42;;;;;;;27.71;58.91;101498.44;4968936;28;20050;-80
2023/09/17 11:16:34;;;;;;;42.20;26.35;;;;;;;27.91;58.51;101537.28;4947210;28;20042;-80
2023/09/17 11:19:19;;;;;;;37.58;22.92;;;;;;;27.58;58.54;101482.25;4927615;28;20072;-82